This demonstration page uses our WeatherBlox Daily Observations layout. Learn more.

39.29038, -76.61219

Hourly Observations for July 14, 2017

Temp ( °F °C ) Dew Point ( °F °C ) Humidity (%) Winds ( mph kmh ) Pressure ( in mb ) Visibility ( mi km ) Precip ( " mm )
12:54 am 00:54 undefined 87 30.6 68 20 53 53 undefined N/A 30 1016 N/A 0 0
1:54 am 01:54 undefined 85 29.4 70 21.1 61 61 undefined N/A 30 1016 N/A 0 0
2:54 am 02:54 undefined 83 28.3 73 22.8 72 72 undefined N/A 30 1016 N/A 0 0
3:54 am 03:54 undefined 82 27.8 75 23.9 79 79 undefined N/A 30 1016 N/A 0 0
4:54 am 04:54 undefined 83 28.3 72 22.2 70 70 undefined N/A 30 1016 N/A 0 0
5:54 am 05:54 undefined 83 28.3 72 22.2 70 70 undefined N/A 30 1016 N/A 0 0
6:54 am 06:54 undefined 83 28.3 74 23.3 74 74 undefined N/A 30 1016 N/A 0 0
7:54 am 07:54 undefined 83 28.3 74 23.3 74 74 undefined N/A 30 1016 N/A 0 0
8:54 am 08:54 undefined 85 29.4 75 23.9 72 72 undefined N/A 30 1016 N/A 0 0
9:54 am 09:54 undefined 87 30.6 75 23.9 67 67 undefined N/A 30 1016 N/A 0 0
10:54 am 10:54 undefined 90 32.2 74 23.3 59 59 undefined N/A 30 1016 N/A 0 0
11:54 am 11:54 undefined 92 33.3 76 24.4 60 60 undefined N/A 30 1016 N/A 0 0
12:54 pm 12:54 undefined 92 33.3 76 24.4 60 60 undefined N/A 29.97 1015 N/A 0 0
1:54 pm 13:54 undefined 85 29.4 79 26.1 82 82 undefined N/A 29.94 1014 N/A 0.03 0.762
2:54 pm 14:54 undefined 89 31.7 77 25 68 68 undefined N/A 29.91 1013 N/A 0 0
3:54 pm 15:54 undefined 87 30.6 78 25.6 75 75 undefined N/A 29.91 1013 N/A 0 0
4:54 pm 16:54 undefined 83 28.3 76 24.4 79 79 undefined N/A 29.91 1013 N/A 0 0
5:54 pm 17:54 undefined 81 27.2 76 24.4 85 85 undefined N/A 29.97 1015 N/A 0 0
6:54 pm 18:54 undefined 80 26.7 76 24.4 87 87 undefined N/A 29.94 1014 N/A 0 0
7:54 pm 19:54 undefined 81 27.2 77 25 88 88 undefined N/A 29.94 1014 N/A 0 0
8:54 pm 20:54 undefined 80 26.7 77 25 90 90 undefined N/A 29.94 1014 N/A 0 0
9:54 pm 21:54 undefined 79 26.1 75 23.9 88 88 undefined N/A 29.94 1014 N/A 0 0
10:54 pm 22:54 undefined 78 25.6 73 22.8 85 85 undefined N/A 29.94 1014 N/A 0 0
11:54 pm 23:54 undefined 77 25 73 22.8 88 88 undefined N/A 29.94 1014 N/A 0 0

Powered by AerisWeather